Time;durP1;ratioP1;P1;durP2;ratioP2;P2;SDS_P1;SDS_P2;PMS_P1;PMS_P2;Temp;Humidity;BMP_temperature;BMP_pressure;BME280_temperature;BME280_humidity;BME280_pressure;Samples;Min_cycle;Max_cycle;Signal;HPM_P1;HPM_P2
2023/09/18 00:02:11;;;;;;;3.15;1.80;;;;;;;;;;5006729;28;20022;-56
2023/09/18 00:04:38;;;;;;;9.57;2.28;;;;;;;;;;5006747;28;20405;-57
2023/09/18 00:07:05;;;;;;;6.38;3.40;;;;;;;;;;4976395;28;20030;-60
2023/09/18 00:09:32;;;;;;;16.67;1.88;;;;;;;;;;4974036;28;20022;-60
2023/09/18 00:11:58;;;;;;;11.55;1.20;;;;;;;;;;4973876;28;20023;-61
2023/09/18 00:14:25;;;;;;;1.38;0.60;;;;;;;;;;4984098;28;20482;-62
2023/09/18 00:16:52;;;;;;;3.13;1.83;;;;;;;;;;4992371;28;20267;-60
2023/09/18 00:19:21;;;;;;;5.23;2.00;;;;;;;;;;4990517;28;20045;-58
2023/09/18 00:21:47;;;;;;;2.03;1.37;;;;;;;;;;4987975;28;20030;-59
2023/09/18 00:24:14;;;;;;;2.53;1.40;;;;;;;;;;4976634;28;20026;-58
2023/09/18 00:26:40;;;;;;;2.03;1.30;;;;;;;;;;4987840;28;20246;-57
2023/09/18 00:29:07;;;;;;;4.33;1.60;;;;;;;;;;4989189;28;20037;-57
2023/09/18 00:31:34;;;;;;;2.03;1.40;;;;;;;;;;4992172;28;20033;-56
2023/09/18 00:34:00;;;;;;;4.90;1.53;;;;;;;;;;4992502;28;20028;-57
2023/09/18 00:36:27;;;;;;;2.43;1.63;;;;;;;;;;4993134;28;20022;-57
2023/09/18 00:38:53;;;;;;;1.97;1.40;;;;;;;;;;4992589;28;20092;-56
2023/09/18 00:41:20;;;;;;;1.63;1.30;;;;;;;;;;4988426;28;20073;-56
2023/09/18 00:43:47;;;;;;;2.33;1.63;;;;;;;;;;4987741;28;20497;-57
2023/09/18 00:46:13;;;;;;;0.97;0.87;;;;;;;;;;4987400;28;20033;-56
2023/09/18 00:48:40;;;;;;;3.97;1.80;;;;;;;;;;4987725;28;20474;-57
2023/09/18 00:51:09;;;;;;;2.50;1.07;;;;;;;;;;4987923;28;20026;-56
2023/09/18 00:53:35;;;;;;;7.03;2.00;;;;;;;;;;4992560;28;20497;-56
2023/09/18 00:56:05;;;;;;;1.67;1.30;;;;;;;;;;4992032;28;20197;-56
2023/09/18 00:58:31;;;;;;;13.07;2.57;;;;;;;;;;4992047;28;20045;-56
2023/09/18 01:00:58;;;;;;;4.20;1.50;;;;;;;;;;4992713;28;20117;-56
2023/09/18 01:03:25;;;;;;;3.03;1.60;;;;;;;;;;4988536;28;20019;-56
2023/09/18 01:05:52;;;;;;;7.70;1.83;;;;;;;;;;4983067;28;20026;-56
2023/09/18 01:08:19;;;;;;;2.57;1.67;;;;;;;;;;4986978;28;20019;-56
2023/09/18 01:11:05;;;;;;;3.57;2.03;;;;;;;;;;4987333;28;20018;-56
2023/09/18 01:13:36;;;;;;;2.73;1.67;;;;;;;;;;4987221;28;20038;-58
2023/09/18 01:16:06;;;;;;;3.57;1.80;;;;;;;;;;4991616;28;20164;-56
2023/09/18 01:18:33;;;;;;;2.13;1.70;;;;;;;;;;4991676;28;20436;-56
2023/09/18 01:20:59;;;;;;;3.00;2.07;;;;;;;;;;4992134;28;20081;-60
2023/09/18 01:23:26;;;;;;;1.70;1.40;;;;;;;;;;4992267;28;20378;-56
2023/09/18 01:25:53;;;;;;;3.10;1.87;;;;;;;;;;4992248;28;20026;-57
2023/09/18 01:28:19;;;;;;;3.10;1.93;;;;;;;;;;4986951;28;20096;-58
2023/09/18 01:30:46;;;;;;;2.60;1.60;;;;;;;;;;4987347;28;20023;-57
2023/09/18 01:33:13;;;;;;;6.67;3.13;;;;;;;;;;4991864;28;20394;-56
2023/09/18 01:35:40;;;;;;;2.13;1.67;;;;;;;;;;4987147;28;20394;-56
2023/09/18 01:38:10;;;;;;;4.40;2.07;;;;;;;;;;4990314;28;20121;-56
2023/09/18 01:40:37;;;;;;;2.13;1.57;;;;;;;;;;4991884;28;20046;-56
2023/09/18 01:43:04;;;;;;;2.57;1.57;;;;;;;;;;4992711;28;20033;-56
2023/09/18 01:45:32;;;;;;;2.53;1.73;;;;;;;;;;4995769;28;20034;-56
2023/09/18 01:47:59;;;;;;;3.17;2.13;;;;;;;;;;4995597;28;20038;-56
2023/09/18 01:50:25;;;;;;;1.70;1.40;;;;;;;;;;4992149;28;20022;-56
2023/09/18 01:52:52;;;;;;;2.83;1.70;;;;;;;;;;4990750;28;20034;-56
2023/09/18 01:55:19;;;;;;;5.73;2.03;;;;;;;;;;4990322;28;20101;-56
2023/09/18 01:57:45;;;;;;;2.60;1.63;;;;;;;;;;4990791;28;20096;-56
2023/09/18 02:00:13;;;;;;;1.83;1.53;;;;;;;;;;4992837;28;20034;-57
2023/09/18 02:02:40;;;;;;;1.73;1.37;;;;;;;;;;4995684;28;20022;-56
2023/09/18 02:05:07;;;;;;;5.80;2.13;;;;;;;;;;4995579;28;20027;-56
2023/09/18 02:07:34;;;;;;;2.60;1.97;;;;;;;;;;4994806;28;20023;-56
2023/09/18 02:10:00;;;;;;;5.10;2.00;;;;;;;;;;4995042;28;20085;-56
2023/09/18 02:12:27;;;;;;;2.93;1.80;;;;;;;;;;4992648;28;20077;-56
2023/09/18 02:14:54;;;;;;;2.13;1.47;;;;;;;;;;4990324;28;20018;-56
2023/09/18 02:17:20;;;;;;;2.13;1.70;;;;;;;;;;4988984;28;20049;-57
2023/09/18 02:19:47;;;;;;;1.87;1.33;;;;;;;;;;4989642;28;20503;-57
2023/09/18 02:22:14;;;;;;;2.00;1.70;;;;;;;;;;4991582;28;20035;-57
2023/09/18 02:24:40;;;;;;;2.53;1.43;;;;;;;;;;4994423;28;20026;-57
2023/09/18 02:27:07;;;;;;;2.03;1.53;;;;;;;;;;4994406;28;20034;-57
2023/09/18 02:29:34;;;;;;;2.50;1.83;;;;;;;;;;4994687;28;20039;-56
2023/09/18 02:32:00;;;;;;;2.13;1.70;;;;;;;;;;4994711;28;20537;-56
2023/09/18 02:34:27;;;;;;;6.17;1.80;;;;;;;;;;4992840;28;20105;-56
2023/09/18 02:36:53;;;;;;;2.63;1.63;;;;;;;;;;4989439;28;20580;-56
2023/09/18 02:39:20;;;;;;;2.37;1.70;;;;;;;;;;4989736;28;20042;-57
2023/09/18 02:41:47;;;;;;;3.57;2.30;;;;;;;;;;4989487;28;20058;-56
2023/09/18 02:44:14;;;;;;;2.03;1.53;;;;;;;;;;4989966;28;20755;-56
2023/09/18 02:46:41;;;;;;;3.43;2.13;;;;;;;;;;4994535;28;20100;-56
2023/09/18 02:49:07;;;;;;;2.93;2.10;;;;;;;;;;4994657;28;20464;-56
2023/09/18 02:51:34;;;;;;;1.70;1.53;;;;;;;;;;4994752;28;20101;-57
2023/09/18 02:54:00;;;;;;;2.73;1.90;;;;;;;;;;4994573;28;20027;-56
2023/09/18 02:56:27;;;;;;;5.57;2.77;;;;;;;;;;4993806;28;20018;-56
2023/09/18 02:58:54;;;;;;;3.97;2.43;;;;;;;;;;4989457;28;20042;-57
2023/09/18 03:01:21;;;;;;;3.67;2.37;;;;;;;;;;4989646;28;20481;-56
2023/09/18 03:03:48;;;;;;;3.27;2.03;;;;;;;;;;4988941;28;20470;-57
2023/09/18 03:06:15;;;;;;;5.13;2.50;;;;;;;;;;4991399;28;20030;-56
2023/09/18 03:08:42;;;;;;;3.83;2.07;;;;;;;;;;4993331;28;20388;-56
2023/09/18 03:11:12;;;;;;;4.00;2.37;;;;;;;;;;4994280;28;20026;-56
2023/09/18 03:13:44;;;;;;;6.70;2.80;;;;;;;;;;4993706;28;20042;-56
2023/09/18 03:16:12;;;;;;;3.00;2.23;;;;;;;;;;4994014;28;20385;-56
2023/09/18 03:18:38;;;;;;;3.80;2.60;;;;;;;;;;4994123;28;20034;-56
2023/09/18 03:21:05;;;;;;;3.17;2.30;;;;;;;;;;4989021;28;20545;-57
2023/09/18 03:23:32;;;;;;;4.30;3.13;;;;;;;;;;4988334;28;20485;-56
2023/09/18 03:25:59;;;;;;;4.63;2.83;;;;;;;;;;4988975;28;20034;-56
2023/09/18 03:28:26;;;;;;;4.53;2.70;;;;;;;;;;4988730;28;20514;-56
2023/09/18 03:30:52;;;;;;;4.60;2.33;;;;;;;;;;4992187;28;20034;-56
2023/09/18 03:33:19;;;;;;;2.63;2.30;;;;;;;;;;4994056;28;20026;-56
2023/09/18 03:35:47;;;;;;;2.93;2.30;;;;;;;;;;4993968;28;20026;-56
2023/09/18 03:38:14;;;;;;;4.00;2.10;;;;;;;;;;4993449;28;20038;-56
2023/09/18 03:40:41;;;;;;;2.57;2.03;;;;;;;;;;4993575;28;20381;-56
2023/09/18 03:43:08;;;;;;;3.87;2.57;;;;;;;;;;4990285;28;20118;-57
2023/09/18 03:45:34;;;;;;;2.93;2.37;;;;;;;;;;4988676;28;20025;-57
2023/09/18 03:48:01;;;;;;;3.30;2.17;;;;;;;;;;4988773;28;20026;-56
2023/09/18 03:50:28;;;;;;;3.90;2.80;;;;;;;;;;4988001;28;20111;-56
2023/09/18 03:52:54;;;;;;;1.20;1.03;;;;;;;;;;4990459;28;20581;-57
2023/09/18 03:55:21;;;;;;;3.63;2.47;;;;;;;;;;4993317;28;20027;-61
2023/09/18 03:57:48;;;;;;;3.47;2.10;;;;;;;;;;4993363;28;20478;-57
2023/09/18 04:00:16;;;;;;;3.10;2.27;;;;;;;;;;4993436;28;20022;-56
2023/09/18 04:02:42;;;;;;;2.80;2.00;;;;;;;;;;4992766;28;20030;-56
2023/09/18 04:05:09;;;;;;;3.77;2.10;;;;;;;;;;4991272;28;20052;-57
2023/09/18 04:07:36;;;;;;;6.03;3.13;;;;;;;;;;4987122;28;20077;-56
2023/09/18 04:10:03;;;;;;;3.00;2.13;;;;;;;;;;4988301;28;20512;-56
2023/09/18 04:12:30;;;;;;;2.63;1.93;;;;;;;;;;4987852;28;20163;-56
2023/09/18 04:14:57;;;;;;;2.90;2.40;;;;;;;;;;4989129;28;20045;-56
2023/09/18 04:17:23;;;;;;;13.67;2.77;;;;;;;;;;4992779;28;20030;-56
2023/09/18 04:19:50;;;;;;;3.40;2.33;;;;;;;;;;4993161;28;20037;-56
2023/09/18 04:22:17;;;;;;;2.47;2.00;;;;;;;;;;4992992;28;20073;-56
2023/09/18 04:24:43;;;;;;;15.63;2.90;;;;;;;;;;4992899;28;20531;-56
2023/09/18 04:27:10;;;;;;;3.50;2.50;;;;;;;;;;4992052;28;20223;-56
2023/09/18 04:29:37;;;;;;;3.83;2.83;;;;;;;;;;4987798;28;20073;-56
2023/09/18 04:32:05;;;;;;;2.80;1.80;;;;;;;;;;4987931;28;20031;-56
2023/09/18 04:34:31;;;;;;;3.50;2.27;;;;;;;;;;4987122;28;20385;-57
2023/09/18 04:36:58;;;;;;;3.43;1.83;;;;;;;;;;4981815;28;20281;-56
2023/09/18 04:39:24;;;;;;;2.63;1.90;;;;;;;;;;4978871;28;20034;-56
2023/09/18 04:41:51;;;;;;;3.57;2.07;;;;;;;;;;4985798;28;20446;-57
2023/09/18 04:44:18;;;;;;;1.53;1.30;;;;;;;;;;4991911;28;20102;-56
2023/09/18 04:46:44;;;;;;;5.23;2.30;;;;;;;;;;4989961;28;20026;-56
2023/09/18 04:49:11;;;;;;;4.27;2.77;;;;;;;;;;4992202;28;20069;-57
2023/09/18 04:51:39;;;;;;;10.57;3.07;;;;;;;;;;4988015;28;20057;-55
2023/09/18 04:54:06;;;;;;;2.77;2.23;;;;;;;;;;4982732;28;20089;-57
2023/09/18 04:56:33;;;;;;;2.77;2.03;;;;;;;;;;4974189;28;20035;-55
2023/09/18 04:59:00;;;;;;;4.03;2.77;;;;;;;;;;4987191;28;20045;-56
2023/09/18 05:01:26;;;;;;;5.90;1.90;;;;;;;;;;4991051;28;20117;-55
2023/09/18 05:03:53;;;;;;;3.10;2.20;;;;;;;;;;4991761;28;20088;-56
2023/09/18 05:06:20;;;;;;;4.07;2.53;;;;;;;;;;4992305;28;20033;-55
2023/09/18 05:08:47;;;;;;;2.50;1.73;;;;;;;;;;4992129;28;20026;-56
2023/09/18 05:11:13;;;;;;;2.80;2.00;;;;;;;;;;4986957;28;20023;-56
2023/09/18 05:13:40;;;;;;;2.27;1.73;;;;;;;;;;4981492;28;20065;-56
2023/09/18 05:16:07;;;;;;;3.20;2.47;;;;;;;;;;4987542;28;20030;-56
2023/09/18 05:18:33;;;;;;;4.03;2.27;;;;;;;;;;4988853;28;20049;-57
2023/09/18 05:21:01;;;;;;;5.07;3.00;;;;;;;;;;4991582;28;20030;-56
2023/09/18 05:23:28;;;;;;;4.80;2.10;;;;;;;;;;4993606;28;20026;-56
2023/09/18 05:25:55;;;;;;;2.63;1.87;;;;;;;;;;4995671;28;20080;-57
2023/09/18 05:28:22;;;;;;;4.10;2.33;;;;;;;;;;4996264;28;20062;-56
2023/09/18 05:30:49;;;;;;;4.03;2.17;;;;;;;;;;4996097;28;20381;-56
2023/09/18 05:33:15;;;;;;;4.23;2.40;;;;;;;;;;4996214;28;20072;-57
2023/09/18 05:35:44;;;;;;;3.17;2.40;;;;;;;;;;4993706;28;20076;-56
2023/09/18 05:38:14;;;;;;;4.63;2.70;;;;;;;;;;4990545;28;20042;-56
2023/09/18 05:40:41;;;;;;;3.27;1.87;;;;;;;;;;4990732;28;20030;-56
2023/09/18 05:43:08;;;;;;;3.03;1.77;;;;;;;;;;4990695;28;20026;-56
2023/09/18 05:45:35;;;;;;;3.20;2.10;;;;;;;;;;4992547;28;20023;-56
2023/09/18 05:48:03;;;;;;;3.13;1.70;;;;;;;;;;4995846;28;20022;-56
2023/09/18 05:50:35;;;;;;;13.03;1.80;;;;;;;;;;4995653;28;20030;-56
2023/09/18 05:53:05;;;;;;;2.03;1.57;;;;;;;;;;4995560;28;20043;-56
2023/09/18 05:55:32;;;;;;;2.73;1.80;;;;;;;;;;4995525;28;20057;-56
2023/09/18 05:57:59;;;;;;;3.27;2.30;;;;;;;;;;4993516;28;20038;-56
2023/09/18 06:00:26;;;;;;;2.80;2.13;;;;;;;;;;4990673;28;20131;-56
2023/09/18 06:02:53;;;;;;;3.80;2.87;;;;;;;;;;4990603;28;20045;-56
2023/09/18 06:05:22;;;;;;;3.80;1.80;;;;;;;;;;4990598;28;20034;-56
2023/09/18 06:07:50;;;;;;;4.73;2.60;;;;;;;;;;4991474;28;20037;-56
2023/09/18 06:10:17;;;;;;;3.03;2.30;;;;;;;;;;4994972;28;20034;-56
2023/09/18 06:12:45;;;;;;;2.23;1.93;;;;;;;;;;4994900;28;20553;-56
2023/09/18 06:15:12;;;;;;;3.93;2.73;;;;;;;;;;4994554;28;20435;-56
2023/09/18 06:17:42;;;;;;;2.80;2.23;;;;;;;;;;4995126;28;20132;-56
2023/09/18 06:20:10;;;;;;;5.93;2.60;;;;;;;;;;4994002;28;20417;-56
2023/09/18 06:22:38;;;;;;;3.70;2.77;;;;;;;;;;4990505;28;20037;-57
2023/09/18 06:25:05;;;;;;;4.17;2.47;;;;;;;;;;4990444;28;20497;-56
2023/09/18 06:27:36;;;;;;;6.77;2.87;;;;;;;;;;4990345;28;20109;-56
2023/09/18 06:30:03;;;;;;;8.20;2.83;;;;;;;;;;4989292;28;20176;-56
2023/09/18 06:32:30;;;;;;;2.53;2.00;;;;;;;;;;4994774;28;20023;-56
2023/09/18 06:35:00;;;;;;;3.73;2.63;;;;;;;;;;4994944;28;20036;-56
2023/09/18 06:37:26;;;;;;;3.33;2.60;;;;;;;;;;4994516;28;20515;-56
2023/09/18 06:39:53;;;;;;;3.60;2.37;;;;;;;;;;4994779;28;20034;-56
2023/09/18 06:42:20;;;;;;;3.73;2.57;;;;;;;;;;4994138;28;20068;-56
2023/09/18 06:44:47;;;;;;;4.50;3.03;;;;;;;;;;4989758;28;20026;-56
2023/09/18 06:47:14;;;;;;;3.40;2.13;;;;;;;;;;4989942;28;20034;-56
2023/09/18 06:49:41;;;;;;;2.37;1.83;;;;;;;;;;4989546;28;20474;-56
2023/09/18 06:52:09;;;;;;;2.30;1.70;;;;;;;;;;4989946;28;20129;-56
2023/09/18 06:54:36;;;;;;;4.03;3.17;;;;;;;;;;4994362;28;20486;-56
2023/09/18 06:57:03;;;;;;;4.17;2.77;;;;;;;;;;4994413;28;20476;-56
2023/09/18 06:59:30;;;;;;;3.33;2.57;;;;;;;;;;4994375;28;20026;-56
2023/09/18 07:01:56;;;;;;;3.47;2.80;;;;;;;;;;4994679;28;20034;-56
2023/09/18 07:04:23;;;;;;;2.87;1.97;;;;;;;;;;4993957;28;20150;-56
2023/09/18 07:06:51;;;;;;;8.27;2.23;;;;;;;;;;4989445;28;20576;-56
2023/09/18 07:09:18;;;;;;;6.03;2.83;;;;;;;;;;4989592;28;20034;-56
2023/09/18 07:11:45;;;;;;;5.17;2.80;;;;;;;;;;4989293;28;20027;-57
2023/09/18 07:14:11;;;;;;;4.23;2.67;;;;;;;;;;4989440;28;20482;-56
2023/09/18 07:16:38;;;;;;;2.90;2.03;;;;;;;;;;4992481;28;20022;-56
2023/09/18 07:19:05;;;;;;;1.50;1.27;;;;;;;;;;4994089;28;20037;-56
2023/09/18 07:21:31;;;;;;;2.17;1.60;;;;;;;;;;4994260;28;20037;-56
2023/09/18 07:23:58;;;;;;;4.07;2.37;;;;;;;;;;4993827;28;20030;-56
2023/09/18 07:26:25;;;;;;;2.27;1.73;;;;;;;;;;4994021;28;20022;-57
2023/09/18 07:28:51;;;;;;;6.67;2.00;;;;;;;;;;4990736;28;20414;-56
2023/09/18 07:31:18;;;;;;;2.73;1.87;;;;;;;;;;4988464;28;20022;-56
2023/09/18 07:33:45;;;;;;;4.20;2.63;;;;;;;;;;4988731;28;20026;-56
2023/09/18 07:36:12;;;;;;;2.93;1.90;;;;;;;;;;4988601;28;20030;-56
2023/09/18 07:38:38;;;;;;;4.77;2.07;;;;;;;;;;4990938;28;20496;-57
2023/09/18 07:41:05;;;;;;;1.60;1.33;;;;;;;;;;4993227;28;20626;-56
2023/09/18 07:43:32;;;;;;;3.47;2.83;;;;;;;;;;4993880;28;20033;-57
2023/09/18 07:45:59;;;;;;;2.93;2.10;;;;;;;;;;4993431;28;20384;-56
2023/09/18 07:48:26;;;;;;;4.50;2.63;;;;;;;;;;4993634;28;20394;-57
2023/09/18 07:50:54;;;;;;;5.00;2.30;;;;;;;;;;4991003;28;20466;-55
2023/09/18 07:53:21;;;;;;;6.23;2.40;;;;;;;;;;4988544;28;20478;-56
2023/09/18 07:55:49;;;;;;;4.40;2.27;;;;;;;;;;4988011;28;20035;-56
2023/09/18 07:58:16;;;;;;;2.47;1.87;;;;;;;;;;4988302;28;20500;-56
2023/09/18 08:00:42;;;;;;;2.93;2.00;;;;;;;;;;4989014;28;20037;-56
2023/09/18 08:03:09;;;;;;;6.00;1.83;;;;;;;;;;4990957;28;20026;-56
2023/09/18 08:05:36;;;;;;;1.67;1.30;;;;;;;;;;4992608;28;20632;-56
2023/09/18 08:08:05;;;;;;;2.20;1.63;;;;;;;;;;4992280;28;20026;-56
2023/09/18 08:10:32;;;;;;;3.23;2.30;;;;;;;;;;4992192;28;20037;-56
2023/09/18 08:12:59;;;;;;;3.07;1.80;;;;;;;;;;4989990;28;20057;-56
2023/09/18 08:15:25;;;;;;;2.47;1.47;;;;;;;;;;4986844;28;20030;-56
2023/09/18 08:17:53;;;;;;;2.70;2.00;;;;;;;;;;4986911;28;20088;-55
2023/09/18 08:20:20;;;;;;;4.70;2.13;;;;;;;;;;4986964;28;20038;-57
2023/09/18 08:22:48;;;;;;;7.30;2.77;;;;;;;;;;4987609;28;20026;-56
2023/09/18 08:25:14;;;;;;;3.40;2.07;;;;;;;;;;4991649;28;20358;-56
2023/09/18 08:27:43;;;;;;;1.90;1.40;;;;;;;;;;4992082;28;20101;-56
2023/09/18 08:30:11;;;;;;;2.00;1.60;;;;;;;;;;4991695;28;20454;-56
2023/09/18 08:32:38;;;;;;;1.97;1.70;;;;;;;;;;4991207;28;20113;-56
2023/09/18 08:35:05;;;;;;;3.17;2.37;;;;;;;;;;4990825;28;20061;-56
2023/09/18 08:37:32;;;;;;;2.37;1.87;;;;;;;;;;4986179;28;20064;-56
2023/09/18 08:40:09;;;;;;;4.80;2.70;;;;;;;;;;4986651;28;20053;-55
2023/09/18 08:42:36;;;;;;;2.57;1.77;;;;;;;;;;4986260;28;20037;-55
2023/09/18 08:45:03;;;;;;;3.73;2.33;;;;;;;;;;4987117;28;20034;-56
2023/09/18 08:47:31;;;;;;;3.47;2.07;;;;;;;;;;4991240;28;20061;-55
2023/09/18 08:49:58;;;;;;;2.40;1.70;;;;;;;;;;4991011;28;20023;-56
2023/09/18 08:52:25;;;;;;;3.77;1.63;;;;;;;;;;4991066;28;20038;-55
2023/09/18 08:54:52;;;;;;;3.23;1.63;;;;;;;;;;4991108;28;20022;-56
2023/09/18 08:57:20;;;;;;;3.63;2.60;;;;;;;;;;4990737;28;20427;-56
2023/09/18 08:59:47;;;;;;;8.23;2.70;;;;;;;;;;4985983;28;20433;-55
2023/09/18 09:02:14;;;;;;;8.63;2.73;;;;;;;;;;4986211;28;20026;-56
2023/09/18 09:04:41;;;;;;;2.90;2.17;;;;;;;;;;4986029;28;20034;-56
2023/09/18 09:07:08;;;;;;;3.77;2.20;;;;;;;;;;4985642;28;20045;-56
2023/09/18 09:09:35;;;;;;;3.00;2.40;;;;;;;;;;4991216;28;20037;-56
2023/09/18 09:12:02;;;;;;;2.93;2.37;;;;;;;;;;4991291;28;20022;-56
2023/09/18 09:14:29;;;;;;;7.40;2.60;;;;;;;;;;4991525;28;20045;-55
2023/09/18 09:16:59;;;;;;;2.67;2.03;;;;;;;;;;4991141;28;20449;-56
2023/09/18 09:19:35;;;;;;;3.00;2.03;;;;;;;;;;4990843;28;20030;-55
2023/09/18 09:22:01;;;;;;;3.40;2.27;;;;;;;;;;4985689;28;20099;-55
2023/09/18 09:24:41;;;;;;;1.73;1.33;;;;;;;;;;4985861;28;20645;-56
2023/09/18 09:27:08;;;;;;;1.90;1.60;;;;;;;;;;4985927;28;20023;-55
2023/09/18 09:29:35;;;;;;;1.70;1.30;;;;;;;;;;4986179;28;20077;-55
2023/09/18 09:32:15;;;;;;;5.00;2.57;;;;;;;;;;4991153;28;20026;-55
2023/09/18 09:34:42;;;;;;;10.87;2.47;;;;;;;;;;4990777;28;20030;-56
2023/09/18 09:37:10;;;;;;;1.90;1.50;;;;;;;;;;4990808;28;20174;-55
2023/09/18 09:39:50;;;;;;;2.43;1.93;;;;;;;;;;4990786;28;20580;-56
2023/09/18 09:42:24;;;;;;;5.30;2.27;;;;;;;;;;4989949;28;20065;-55
2023/09/18 09:45:03;;;;;;;3.60;1.60;;;;;;;;;;4985868;28;20486;-56
2023/09/18 09:47:33;;;;;;;2.63;1.90;;;;;;;;;;4985959;28;20045;-56
2023/09/18 09:50:06;;;;;;;3.80;2.40;;;;;;;;;;4986987;28;20069;-56
2023/09/18 09:52:35;;;;;;;1.20;1.10;;;;;;;;;;4987895;28;20034;-55
2023/09/18 09:55:19;;;;;;;2.27;2.00;;;;;;;;;;4992170;28;20026;-55
2023/09/18 09:57:49;;;;;;;3.70;2.00;;;;;;;;;;4992067;28;20023;-55
2023/09/18 10:00:26;;;;;;;1.90;1.50;;;;;;;;;;4992212;28;20477;-55
2023/09/18 10:03:00;;;;;;;1.30;1.03;;;;;;;;;;4992354;28;20040;-55
2023/09/18 10:05:34;;;;;;;3.80;2.50;;;;;;;;;;4992107;28;20391;-56
2023/09/18 10:08:02;;;;;;;3.87;2.20;;;;;;;;;;4990305;28;20034;-55
2023/09/18 10:10:31;;;;;;;4.00;2.27;;;;;;;;;;4990556;28;20093;-55
2023/09/18 10:13:01;;;;;;;2.00;1.60;;;;;;;;;;4990529;28;20030;-55
2023/09/18 10:15:31;;;;;;;2.10;1.60;;;;;;;;;;4991994;28;20030;-55
2023/09/18 10:18:00;;;;;;;2.87;2.23;;;;;;;;;;4994797;28;20078;-55
2023/09/18 10:20:28;;;;;;;3.13;2.07;;;;;;;;;;4995812;28;20381;-55
2023/09/18 10:22:57;;;;;;;1.27;1.17;;;;;;;;;;4995395;28;20034;-57
2023/09/18 10:25:31;;;;;;;2.20;1.70;;;;;;;;;;4995077;28;20046;-55
2023/09/18 10:28:02;;;;;;;1.93;1.63;;;;;;;;;;4992768;28;20510;-56
2023/09/18 10:30:30;;;;;;;2.03;1.53;;;;;;;;;;4990254;28;20026;-55
2023/09/18 10:32:59;;;;;;;1.77;1.37;;;;;;;;;;4990005;28;20034;-55
2023/09/18 10:35:26;;;;;;;4.40;2.43;;;;;;;;;;4989556;28;20031;-55
2023/09/18 10:37:55;;;;;;;2.17;1.43;;;;;;;;;;4992095;28;20025;-55
2023/09/18 10:40:22;;;;;;;2.17;1.67;;;;;;;;;;4995063;28;20066;-55
2023/09/18 10:42:51;;;;;;;5.57;2.40;;;;;;;;;;4995109;28;20509;-55
2023/09/18 10:45:17;;;;;;;3.07;1.93;;;;;;;;;;4995212;28;20601;-55
2023/09/18 10:47:45;;;;;;;10.50;2.37;;;;;;;;;;4994983;28;20382;-55
2023/09/18 10:50:12;;;;;;;2.27;1.77;;;;;;;;;;4992388;28;20034;-55
2023/09/18 10:52:47;;;;;;;2.33;1.80;;;;;;;;;;4989402;28;20050;-55
2023/09/18 10:55:14;;;;;;;2.53;2.00;;;;;;;;;;4988862;28;20436;-55
2023/09/18 10:57:53;;;;;;;2.60;2.23;;;;;;;;;;4989712;28;20583;-55
2023/09/18 11:00:23;;;;;;;2.60;2.00;;;;;;;;;;4992001;28;20034;-55
2023/09/18 11:02:53;;;;;;;1.90;1.53;;;;;;;;;;4994773;28;20470;-55
2023/09/18 11:05:33;;;;;;;4.23;2.00;;;;;;;;;;4994816;28;20037;-55
2023/09/18 11:08:18;;;;;;;2.60;1.77;;;;;;;;;;4994683;28;20027;-55
2023/09/18 11:11:09;;;;;;;4.07;2.15;;;;;;;;;;4994943;28;20026;-55
2023/09/18 11:13:40;;;;;;;2.40;1.97;;;;;;;;;;4983662;28;20042;-56
2023/09/18 11:16:30;;;;;;;2.97;1.90;;;;;;;;;;4988870;28;20026;-55
2023/09/18 11:19:00;;;;;;;3.43;2.33;;;;;;;;;;4983873;28;20732;-55
2023/09/18 11:21:31;;;;;;;6.43;2.23;;;;;;;;;;4989199;28;20123;-55
2023/09/18 11:24:04;;;;;;;1.73;1.37;;;;;;;;;;4993798;28;20025;-55
2023/09/18 11:26:32;;;;;;;2.03;1.60;;;;;;;;;;4994306;28;20034;-55
2023/09/18 11:29:05;;;;;;;3.73;1.70;;;;;;;;;;4994440;28;20481;-55
2023/09/18 11:31:50;;;;;;;4.80;2.53;;;;;;;;;;4994020;28;20027;-55
2023/09/18 11:34:31;;;;;;;3.28;2.33;;;;;;;;;;4993683;28;20489;-55
2023/09/18 11:37:02;;;;;;;3.97;1.83;;;;;;;;;;4988983;28;20045;-55
2023/09/18 11:39:39;;;;;;;2.83;1.20;;;;;;;;;;4988533;28;20085;-55
2023/09/18 11:42:08;;;;;;;5.57;2.77;;;;;;;;;;4988745;28;20034;-55
2023/09/18 11:44:40;;;;;;;3.93;1.47;;;;;;;;;;4989874;28;20026;-55
2023/09/18 11:47:08;;;;;;;3.97;1.70;;;;;;;;;;4993900;28;20038;-55
2023/09/18 11:49:35;;;;;;;3.50;2.20;;;;;;;;;;4993672;28;20037;-55
2023/09/18 11:52:03;;;;;;;1.40;1.27;;;;;;;;;;4993973;28;20023;-55
2023/09/18 11:54:31;;;;;;;1.87;1.17;;;;;;;;;;4992907;28;20046;-55
2023/09/18 11:56:58;;;;;;;2.20;1.63;;;;;;;;;;4992280;28;20089;-55
2023/09/18 11:59:46;;;;;;;3.27;2.07;;;;;;;;;;4988366;28;20493;-55
2023/09/18 12:02:27;;;;;;;2.20;1.63;;;;;;;;;;4988327;28;20042;-55
2023/09/18 12:04:57;;;;;;;4.40;1.77;;;;;;;;;;4988392;28;20025;-55
2023/09/18 12:07:24;;;;;;;11.00;2.30;;;;;;;;;;4990318;28;20030;-55
2023/09/18 12:09:51;;;;;;;2.97;2.20;;;;;;;;;;4993519;28;20038;-55
2023/09/18 12:12:18;;;;;;;2.43;1.80;;;;;;;;;;4993514;28;20023;-55
2023/09/18 12:14:44;;;;;;;1.83;1.60;;;;;;;;;;4993345;28;20031;-55
2023/09/18 12:17:15;;;;;;;2.03;1.67;;;;;;;;;;4993246;28;20041;-55
2023/09/18 12:20:04;;;;;;;3.60;2.27;;;;;;;;;;4990851;28;20041;-55
2023/09/18 12:22:33;;;;;;;3.37;1.63;;;;;;;;;;4987570;28;20042;-55
2023/09/18 12:25:18;;;;;;;2.63;2.03;;;;;;;;;;4987588;28;20062;-56
2023/09/18 12:27:45;;;;;;;3.67;2.27;;;;;;;;;;4986827;28;20394;-55
2023/09/18 12:30:14;;;;;;;5.47;2.63;;;;;;;;;;4990803;28;20470;-55
2023/09/18 12:32:41;;;;;;;5.23;2.37;;;;;;;;;;4992843;28;20193;-55
2023/09/18 12:35:09;;;;;;;3.07;1.93;;;;;;;;;;4993244;28;20148;-56
2023/09/18 12:37:36;;;;;;;12.10;2.97;;;;;;;;;;4993050;28;20035;-55
2023/09/18 12:40:10;;;;;;;3.93;2.67;;;;;;;;;;4992684;28;20034;-55
2023/09/18 12:42:40;;;;;;;3.83;2.40;;;;;;;;;;4989098;28;20111;-55
2023/09/18 12:45:10;;;;;;;4.40;2.80;;;;;;;;;;4987772;28;20504;-55
2023/09/18 12:47:39;;;;;;;3.93;2.70;;;;;;;;;;4987725;28;20038;-55
2023/09/18 12:50:07;;;;;;;4.40;2.27;;;;;;;;;;4987593;28;20481;-55
2023/09/18 12:52:33;;;;;;;2.70;1.97;;;;;;;;;;4990287;28;20041;-55
2023/09/18 12:55:02;;;;;;;15.23;2.93;;;;;;;;;;4992572;28;20026;-56
2023/09/18 12:57:30;;;;;;;3.43;2.20;;;;;;;;;;4992452;28;20038;-55
2023/09/18 12:59:56;;;;;;;5.83;3.17;;;;;;;;;;4992667;28;20397;-55
2023/09/18 13:02:24;;;;;;;18.13;3.90;;;;;;;;;;4992710;28;20026;-55
2023/09/18 13:04:54;;;;;;;5.77;3.23;;;;;;;;;;4989860;28;20022;-55
2023/09/18 13:07:22;;;;;;;4.20;3.13;;;;;;;;;;4987177;28;20038;-55
2023/09/18 13:10:03;;;;;;;4.67;3.53;;;;;;;;;;4987489;28;20037;-55
2023/09/18 13:12:41;;;;;;;7.87;3.87;;;;;;;;;;4987449;28;20033;-55
2023/09/18 13:15:12;;;;;;;3.57;2.70;;;;;;;;;;4990705;28;20105;-55
2023/09/18 13:17:47;;;;;;;2.73;1.80;;;;;;;;;;4992496;28;20373;-55
2023/09/18 13:20:20;;;;;;;5.32;3.42;;;;;;;;;;4992420;28;20037;-55
2023/09/18 13:22:49;;;;;;;4.87;2.60;;;;;;;;;;4992079;28;20065;-55
2023/09/18 13:25:22;;;;;;;4.93;3.00;;;;;;;;;;4992149;28;20045;-55
2023/09/18 13:27:49;;;;;;;3.23;2.50;;;;;;;;;;4988156;28;20034;-55
2023/09/18 13:30:20;;;;;;;3.10;2.00;;;;;;;;;;4986882;28;20018;-55
2023/09/18 13:32:50;;;;;;;2.63;2.03;;;;;;;;;;4985994;28;20042;-56
2023/09/18 13:35:17;;;;;;;3.27;2.53;;;;;;;;;;4986248;28;20042;-55
2023/09/18 13:37:44;;;;;;;3.60;2.70;;;;;;;;;;4990972;28;20077;-55
2023/09/18 13:40:11;;;;;;;3.77;2.80;;;;;;;;;;4994942;28;20170;-55
2023/09/18 13:42:39;;;;;;;3.23;2.33;;;;;;;;;;4995962;28;20525;-55
2023/09/18 13:45:06;;;;;;;3.20;2.67;;;;;;;;;;4996080;28;20381;-55
2023/09/18 13:47:33;;;;;;;5.43;3.00;;;;;;;;;;4996262;28;20080;-55
2023/09/18 13:50:04;;;;;;;2.67;2.10;;;;;;;;;;4992111;28;20508;-55
2023/09/18 13:52:31;;;;;;;3.37;2.37;;;;;;;;;;4990254;28;20031;-55
2023/09/18 13:54:58;;;;;;;4.67;2.93;;;;;;;;;;4991011;28;20050;-55
2023/09/18 13:57:25;;;;;;;7.13;2.57;;;;;;;;;;4990643;28;20027;-55
2023/09/18 13:59:52;;;;;;;2.70;2.00;;;;;;;;;;4993712;28;20027;-56
2023/09/18 14:02:19;;;;;;;2.97;2.20;;;;;;;;;;4995198;28;20031;-55
2023/09/18 14:04:46;;;;;;;13.63;3.27;;;;;;;;;;4995556;28;20568;-55
2023/09/18 14:07:13;;;;;;;3.60;2.87;;;;;;;;;;4996115;28;20445;-55
2023/09/18 14:09:39;;;;;;;3.10;2.43;;;;;;;;;;4995505;28;20022;-55
2023/09/18 14:12:09;;;;;;;2.87;2.17;;;;;;;;;;4992449;28;20026;-55
2023/09/18 14:14:36;;;;;;;4.03;3.00;;;;;;;;;;4990419;28;20026;-55
2023/09/18 14:17:06;;;;;;;7.33;2.77;;;;;;;;;;4989858;28;20117;-55
2023/09/18 14:19:34;;;;;;;4.13;2.43;;;;;;;;;;4990405;28;20034;-55
2023/09/18 14:22:03;;;;;;;3.10;2.50;;;;;;;;;;4992512;28;20035;-55
2023/09/18 14:24:30;;;;;;;5.50;3.30;;;;;;;;;;4994967;28;20393;-56
2023/09/18 14:26:57;;;;;;;2.67;2.10;;;;;;;;;;4995648;28;20037;-55
2023/09/18 14:29:24;;;;;;;3.63;2.53;;;;;;;;;;4995377;28;20053;-55
2023/09/18 14:31:51;;;;;;;3.40;2.57;;;;;;;;;;4995251;28;20130;-56
2023/09/18 14:34:18;;;;;;;3.27;2.17;;;;;;;;;;4992290;28;20032;-56
2023/09/18 14:36:44;;;;;;;8.40;2.23;;;;;;;;;;4990184;28;20097;-55
2023/09/18 14:39:12;;;;;;;2.20;1.67;;;;;;;;;;4989999;28;20479;-55
2023/09/18 14:41:39;;;;;;;2.60;2.00;;;;;;;;;;4989581;28;20386;-55
2023/09/18 14:44:08;;;;;;;2.90;1.70;;;;;;;;;;4992084;28;20022;-55
2023/09/18 14:46:36;;;;;;;1.20;0.97;;;;;;;;;;4994516;28;20493;-56
2023/09/18 14:49:04;;;;;;;1.57;1.20;;;;;;;;;;4995150;28;20506;-55
2023/09/18 14:51:32;;;;;;;1.83;1.40;;;;;;;;;;4993715;28;20109;-56